sensor_id;sensor_type;location;lat;lon;timestamp;pressure;altitude;pressure_sealevel;temperature;humidity
9521;BME280;4798;41.574;23.734;2022-12-07T00:01:43;95469.50;;;9.66;100.00
9521;BME280;4798;41.574;23.734;2022-12-07T00:04:13;95417.78;;;9.28;100.00
9521;BME280;4798;41.574;23.734;2022-12-07T00:06:43;95439.50;;;9.35;100.00
9521;BME280;4798;41.574;23.734;2022-12-07T00:09:14;95469.72;;;9.59;100.00
9521;BME280;4798;41.574;23.734;2022-12-07T00:11:43;95461.19;;;9.42;100.00
9521;BME280;4798;41.574;23.734;2022-12-07T00:14:13;95470.53;;;9.54;100.00
9521;BME280;4798;41.574;23.734;2022-12-07T00:16:43;95465.25;;;9.65;100.00
9521;BME280;4798;41.574;23.734;2022-12-07T00:19:13;95465.00;;;9.61;100.00
9521;BME280;4798;41.574;23.734;2022-12-07T00:21:43;95408.25;;;9.27;100.00
9521;BME280;4798;41.574;23.734;2022-12-07T00:24:11;95454.66;;;9.59;100.00
9521;BME280;4798;41.574;23.734;2022-12-07T00:26:41;95457.31;;;9.65;100.00
9521;BME280;4798;41.574;23.734;2022-12-07T00:29:14;95451.00;;;9.71;100.00
9521;BME280;4798;41.574;23.734;2022-12-07T00:31:45;95457.50;;;9.43;100.00
9521;BME280;4798;41.574;23.734;2022-12-07T00:34:15;95455.97;;;9.57;100.00
9521;BME280;4798;41.574;23.734;2022-12-07T00:36:43;95459.38;;;9.47;100.00
9521;BME280;4798;41.574;23.734;2022-12-07T00:39:12;95374.84;;;9.06;100.00
9521;BME280;4798;41.574;23.734;2022-12-07T00:41:40;95447.00;;;9.63;100.00
9521;BME280;4798;41.574;23.734;2022-12-07T00:44:08;95451.50;;;9.63;100.00
9521;BME280;4798;41.574;23.734;2022-12-07T00:46:37;95445.44;;;9.67;100.00
9521;BME280;4798;41.574;23.734;2022-12-07T00:49:07;95427.44;;;9.69;100.00
9521;BME280;4798;41.574;23.734;2022-12-07T00:51:35;95438.59;;;9.81;100.00
9521;BME280;4798;41.574;23.734;2022-12-07T00:54:04;95428.53;;;9.83;100.00
9521;BME280;4798;41.574;23.734;2022-12-07T00:56:32;95427.97;;;9.66;100.00
9521;BME280;4798;41.574;23.734;2022-12-07T00:59:02;95431.34;;;9.56;100.00
9521;BME280;4798;41.574;23.734;2022-12-07T01:01:32;95427.44;;;9.69;100.00
9521;BME280;4798;41.574;23.734;2022-12-07T01:04:01;95337.59;;;9.12;100.00
9521;BME280;4798;41.574;23.734;2022-12-07T01:06:31;95411.50;;;9.54;100.00
9521;BME280;4798;41.574;23.734;2022-12-07T01:09:00;95436.44;;;9.63;100.00
9521;BME280;4798;41.574;23.734;2022-12-07T01:11:29;95312.16;;;9.01;100.00
9521;BME280;4798;41.574;23.734;2022-12-07T01:13:59;95418.16;;;9.72;100.00
9521;BME280;4798;41.574;23.734;2022-12-07T01:16:29;95412.63;;;9.73;100.00
9521;BME280;4798;41.574;23.734;2022-12-07T01:18:59;95416.31;;;9.72;100.00
9521;BME280;4798;41.574;23.734;2022-12-07T01:21:31;95414.13;;;9.44;100.00
9521;BME280;4798;41.574;23.734;2022-12-07T01:24:02;95418.66;;;8.91;100.00
9521;BME280;4798;41.574;23.734;2022-12-07T01:26:30;95414.28;;;8.70;100.00
9521;BME280;4798;41.574;23.734;2022-12-07T01:28:59;95426.13;;;9.05;100.00
9521;BME280;4798;41.574;23.734;2022-12-07T01:31:29;95429.31;;;9.12;100.00
9521;BME280;4798;41.574;23.734;2022-12-07T01:33:59;95420.47;;;8.91;100.00
9521;BME280;4798;41.574;23.734;2022-12-07T01:36:29;95407.97;;;8.76;100.00
9521;BME280;4798;41.574;23.734;2022-12-07T01:39:01;95418.97;;;9.00;100.00
9521;BME280;4798;41.574;23.734;2022-12-07T01:41:31;95404.69;;;9.06;100.00
9521;BME280;4798;41.574;23.734;2022-12-07T01:44:22;95413.28;;;9.23;100.00
9521;BME280;4798;41.574;23.734;2022-12-07T01:46:52;95413.44;;;9.07;100.00
9521;BME280;4798;41.574;23.734;2022-12-07T01:49:26;95408.38;;;8.95;100.00
9521;BME280;4798;41.574;23.734;2022-12-07T01:52:01;95412.84;;;8.94;100.00
9521;BME280;4798;41.574;23.734;2022-12-07T01:54:34;95392.25;;;9.02;100.00
9521;BME280;4798;41.574;23.734;2022-12-07T01:57:03;95407.66;;;9.15;100.00
9521;BME280;4798;41.574;23.734;2022-12-07T01:59:33;95397.41;;;9.23;100.00
9521;BME280;4798;41.574;23.734;2022-12-07T02:02:04;95401.13;;;8.80;100.00
9521;BME280;4798;41.574;23.734;2022-12-07T02:04:35;95397.78;;;8.53;100.00
9521;BME280;4798;41.574;23.734;2022-12-07T02:07:05;95384.50;;;8.43;100.00
9521;BME280;4798;41.574;23.734;2022-12-07T02:09:34;95387.38;;;8.78;100.00
9521;BME280;4798;41.574;23.734;2022-12-07T02:12:06;95393.91;;;8.66;100.00
9521;BME280;4798;41.574;23.734;2022-12-07T02:14:34;95389.53;;;8.40;100.00
9521;BME280;4798;41.574;23.734;2022-12-07T02:17:08;95314.72;;;7.97;100.00
9521;BME280;4798;41.574;23.734;2022-12-07T02:25:58;95390.34;;;8.87;100.00
9521;BME280;4798;41.574;23.734;2022-12-07T02:28:33;95280.38;;;8.29;100.00
9521;BME280;4798;41.574;23.734;2022-12-07T02:31:08;95379.00;;;8.91;100.00
9521;BME280;4798;41.574;23.734;2022-12-07T02:33:43;95377.88;;;8.77;100.00
9521;BME280;4798;41.574;23.734;2022-12-07T02:36:17;95369.47;;;8.90;100.00
9521;BME280;4798;41.574;23.734;2022-12-07T02:38:54;95372.16;;;9.01;100.00
9521;BME280;4798;41.574;23.734;2022-12-07T02:41:26;95371.19;;;8.65;100.00
9521;BME280;4798;41.574;23.734;2022-12-07T02:43:58;95359.28;;;8.62;100.00
9521;BME280;4798;41.574;23.734;2022-12-07T02:46:30;95341.84;;;8.61;100.00
9521;BME280;4798;41.574;23.734;2022-12-07T02:49:00;95370.59;;;9.00;100.00
9521;BME280;4798;41.574;23.734;2022-12-07T02:51:30;95370.06;;;9.03;100.00
9521;BME280;4798;41.574;23.734;2022-12-07T02:53:59;95293.28;;;8.67;100.00
9521;BME280;4798;41.574;23.734;2022-12-07T02:56:33;95361.13;;;9.14;100.00
9521;BME280;4798;41.574;23.734;2022-12-07T02:59:16;95367.22;;;9.19;100.00
9521;BME280;4798;41.574;23.734;2022-12-07T03:01:56;95365.66;;;9.23;100.00
9521;BME280;4798;41.574;23.734;2022-12-07T03:04:36;95358.25;;;9.25;100.00
9521;BME280;4798;41.574;23.734;2022-12-07T03:07:14;95361.72;;;9.26;100.00
9521;BME280;4798;41.574;23.734;2022-12-07T03:09:55;95364.88;;;9.28;100.00
9521;BME280;4798;41.574;23.734;2022-12-07T03:12:31;95350.81;;;9.17;100.00
9521;BME280;4798;41.574;23.734;2022-12-07T03:15:04;95363.25;;;9.22;100.00
9521;BME280;4798;41.574;23.734;2022-12-07T03:17:38;95359.28;;;9.19;100.00
9521;BME280;4798;41.574;23.734;2022-12-07T03:20:13;95357.69;;;9.08;100.00
9521;BME280;4798;41.574;23.734;2022-12-07T03:22:45;95369.63;;;9.21;100.00
9521;BME280;4798;41.574;23.734;2022-12-07T03:25:16;95364.31;;;9.16;100.00
9521;BME280;4798;41.574;23.734;2022-12-07T03:27:49;95373.81;;;9.12;100.00
9521;BME280;4798;41.574;23.734;2022-12-07T03:30:21;95362.97;;;9.08;100.00
9521;BME280;4798;41.574;23.734;2022-12-07T03:32:54;95373.78;;;9.07;100.00
9521;BME280;4798;41.574;23.734;2022-12-07T03:35:28;95363.19;;;9.07;100.00
9521;BME280;4798;41.574;23.734;2022-12-07T03:38:00;95366.78;;;8.80;100.00
9521;BME280;4798;41.574;23.734;2022-12-07T03:40:35;95374.84;;;8.59;100.00
9521;BME280;4798;41.574;23.734;2022-12-07T03:43:05;95364.72;;;8.46;100.00
9521;BME280;4798;41.574;23.734;2022-12-07T03:45:38;95369.47;;;8.44;100.00
9521;BME280;4798;41.574;23.734;2022-12-07T03:48:13;95365.53;;;8.46;100.00
9521;BME280;4798;41.574;23.734;2022-12-07T03:50:51;95369.22;;;8.50;100.00
9521;BME280;4798;41.574;23.734;2022-12-07T03:53:24;95366.56;;;8.45;100.00
9521;BME280;4798;41.574;23.734;2022-12-07T03:55:57;95367.06;;;8.37;100.00
9521;BME280;4798;41.574;23.734;2022-12-07T03:58:25;95367.63;;;8.44;100.00
9521;BME280;4798;41.574;23.734;2022-12-07T04:00:54;95361.09;;;8.57;100.00
9521;BME280;4798;41.574;23.734;2022-12-07T04:03:24;95362.69;;;8.58;100.00
9521;BME280;4798;41.574;23.734;2022-12-07T04:05:53;95358.38;;;8.42;100.00
9521;BME280;4798;41.574;23.734;2022-12-07T04:08:21;95358.00;;;8.28;100.00
9521;BME280;4798;41.574;23.734;2022-12-07T04:10:49;95351.53;;;8.14;100.00
9521;BME280;4798;41.574;23.734;2022-12-07T04:13:18;95336.56;;;8.24;100.00
9521;BME280;4798;41.574;23.734;2022-12-07T04:15:46;95345.41;;;8.40;100.00
9521;BME280;4798;41.574;23.734;2022-12-07T04:18:14;95347.59;;;8.53;100.00
9521;BME280;4798;41.574;23.734;2022-12-07T04:20:45;95343.88;;;8.49;100.00
9521;BME280;4798;41.574;23.734;2022-12-07T04:23:14;95351.50;;;8.46;100.00
9521;BME280;4798;41.574;23.734;2022-12-07T04:25:43;95347.81;;;8.42;100.00
9521;BME280;4798;41.574;23.734;2022-12-07T04:28:11;95346.16;;;8.36;100.00
9521;BME280;4798;41.574;23.734;2022-12-07T04:30:39;95347.72;;;8.32;100.00
9521;BME280;4798;41.574;23.734;2022-12-07T04:33:08;95352.22;;;8.31;100.00
9521;BME280;4798;41.574;23.734;2022-12-07T04:35:36;95346.34;;;8.24;100.00
9521;BME280;4798;41.574;23.734;2022-12-07T04:38:05;95353.13;;;8.15;100.00
9521;BME280;4798;41.574;23.734;2022-12-07T04:40:34;95352.53;;;8.08;100.00
9521;BME280;4798;41.574;23.734;2022-12-07T04:43:02;95352.84;;;8.11;100.00
9521;BME280;4798;41.574;23.734;2022-12-07T04:45:31;95345.69;;;8.07;100.00
9521;BME280;4798;41.574;23.734;2022-12-07T04:47:59;95359.47;;;8.14;100.00
9521;BME280;4798;41.574;23.734;2022-12-07T04:50:28;95326.31;;;7.96;100.00
9521;BME280;4798;41.574;23.734;2022-12-07T04:52:57;95352.72;;;7.96;100.00
9521;BME280;4798;41.574;23.734;2022-12-07T04:55:27;95359.91;;;8.06;100.00
9521;BME280;4798;41.574;23.734;2022-12-07T04:57:55;95358.91;;;8.12;100.00
9521;BME280;4798;41.574;23.734;2022-12-07T05:00:23;95366.53;;;8.08;100.00
9521;BME280;4798;41.574;23.734;2022-12-07T05:02:51;95361.00;;;8.10;100.00
9521;BME280;4798;41.574;23.734;2022-12-07T05:05:20;95365.78;;;8.13;100.00
9521;BME280;4798;41.574;23.734;2022-12-07T05:07:48;95359.72;;;8.17;100.00
9521;BME280;4798;41.574;23.734;2022-12-07T05:10:17;95362.34;;;8.12;100.00
9521;BME280;4798;41.574;23.734;2022-12-07T05:12:47;95360.75;;;8.11;100.00
9521;BME280;4798;41.574;23.734;2022-12-07T05:15:15;95343.25;;;8.00;100.00
9521;BME280;4798;41.574;23.734;2022-12-07T05:17:43;95351.16;;;8.00;100.00
9521;BME280;4798;41.574;23.734;2022-12-07T05:20:12;95360.91;;;8.00;100.00
9521;BME280;4798;41.574;23.734;2022-12-07T05:22:40;95353.00;;;8.00;100.00
9521;BME280;4798;41.574;23.734;2022-12-07T05:25:08;95359.53;;;7.92;100.00
9521;BME280;4798;41.574;23.734;2022-12-07T05:27:37;95358.38;;;7.78;100.00
9521;BME280;4798;41.574;23.734;2022-12-07T05:30:08;95374.72;;;7.80;100.00
9521;BME280;4798;41.574;23.734;2022-12-07T05:32:36;95367.63;;;7.81;100.00
9521;BME280;4798;41.574;23.734;2022-12-07T05:35:05;95373.44;;;7.83;100.00
9521;BME280;4798;41.574;23.734;2022-12-07T05:37:33;95369.09;;;7.72;100.00
9521;BME280;4798;41.574;23.734;2022-12-07T05:40:02;95371.56;;;7.78;100.00
9521;BME280;4798;41.574;23.734;2022-12-07T05:42:31;95379.06;;;7.91;100.00
9521;BME280;4798;41.574;23.734;2022-12-07T05:44:59;95375.72;;;8.01;100.00
9521;BME280;4798;41.574;23.734;2022-12-07T05:47:29;95374.38;;;7.98;100.00
9521;BME280;4798;41.574;23.734;2022-12-07T05:49:57;95377.81;;;7.99;100.00
9521;BME280;4798;41.574;23.734;2022-12-07T05:52:26;95379.91;;;7.97;100.00
9521;BME280;4798;41.574;23.734;2022-12-07T05:54:54;95385.22;;;8.02;100.00
9521;BME280;4798;41.574;23.734;2022-12-07T05:57:23;95376.06;;;8.09;100.00
9521;BME280;4798;41.574;23.734;2022-12-07T05:59:51;95376.69;;;8.21;100.00
9521;BME280;4798;41.574;23.734;2022-12-07T06:02:19;95374.22;;;8.15;100.00
9521;BME280;4798;41.574;23.734;2022-12-07T06:04:49;95375.50;;;8.07;100.00
9521;BME280;4798;41.574;23.734;2022-12-07T06:07:17;95390.03;;;8.10;100.00
9521;BME280;4798;41.574;23.734;2022-12-07T06:09:45;95389.56;;;8.18;100.00
9521;BME280;4798;41.574;23.734;2022-12-07T06:12:14;95383.25;;;8.19;100.00
9521;BME280;4798;41.574;23.734;2022-12-07T06:14:59;95382.09;;;8.37;100.00
9521;BME280;4798;41.574;23.734;2022-12-07T06:17:28;95379.63;;;8.62;100.00
9521;BME280;4798;41.574;23.734;2022-12-07T06:19:57;95388.75;;;8.86;100.00
9521;BME280;4798;41.574;23.734;2022-12-07T06:22:26;95387.91;;;8.80;100.00
9521;BME280;4798;41.574;23.734;2022-12-07T06:24:55;95379.78;;;8.87;100.00
9521;BME280;4798;41.574;23.734;2022-12-07T06:27:23;95382.69;;;8.90;100.00
9521;BME280;4798;41.574;23.734;2022-12-07T06:29:51;95381.69;;;9.02;100.00
9521;BME280;4798;41.574;23.734;2022-12-07T06:32:20;95389.38;;;8.56;100.00
9521;BME280;4798;41.574;23.734;2022-12-07T06:34:48;95390.84;;;8.42;100.00
9521;BME280;4798;41.574;23.734;2022-12-07T06:37:17;95401.31;;;8.00;100.00
9521;BME280;4798;41.574;23.734;2022-12-07T06:39:46;95391.63;;;7.79;100.00
9521;BME280;4798;41.574;23.734;2022-12-07T06:42:14;95396.47;;;7.92;100.00
9521;BME280;4798;41.574;23.734;2022-12-07T06:44:42;95391.19;;;7.92;100.00
9521;BME280;4798;41.574;23.734;2022-12-07T06:47:11;95402.91;;;7.75;100.00
9521;BME280;4798;41.574;23.734;2022-12-07T06:49:59;95412.88;;;7.67;100.00
9521;BME280;4798;41.574;23.734;2022-12-07T06:52:30;95352.38;;;7.34;100.00
9521;BME280;4798;41.574;23.734;2022-12-07T06:54:58;95418.06;;;8.16;100.00
9521;BME280;4798;41.574;23.734;2022-12-07T06:57:26;95325.09;;;7.45;100.00
9521;BME280;4798;41.574;23.734;2022-12-07T06:59:55;95419.34;;;8.40;100.00
9521;BME280;4798;41.574;23.734;2022-12-07T07:02:23;95409.16;;;7.95;100.00
9521;BME280;4798;41.574;23.734;2022-12-07T07:04:52;95405.63;;;8.11;100.00
9521;BME280;4798;41.574;23.734;2022-12-07T07:07:20;95422.56;;;8.42;100.00
9521;BME280;4798;41.574;23.734;2022-12-07T07:09:50;95416.88;;;8.65;100.00
9521;BME280;4798;41.574;23.734;2022-12-07T07:12:18;95422.66;;;8.57;100.00
9521;BME280;4798;41.574;23.734;2022-12-07T07:14:46;95410.41;;;8.46;100.00
9521;BME280;4798;41.574;23.734;2022-12-07T07:17:15;95419.06;;;8.73;100.00
9521;BME280;4798;41.574;23.734;2022-12-07T07:19:43;95417.31;;;8.47;100.00
9521;BME280;4798;41.574;23.734;2022-12-07T07:22:11;95415.59;;;8.73;100.00
9521;BME280;4798;41.574;23.734;2022-12-07T07:24:39;95411.66;;;8.75;100.00
9521;BME280;4798;41.574;23.734;2022-12-07T07:27:09;95405.88;;;9.30;100.00
9521;BME280;4798;41.574;23.734;2022-12-07T07:29:37;95404.41;;;9.70;100.00
9521;BME280;4798;41.574;23.734;2022-12-07T07:32:05;95413.78;;;10.12;100.00
9521;BME280;4798;41.574;23.734;2022-12-07T07:34:35;95369.47;;;9.63;100.00
9521;BME280;4798;41.574;23.734;2022-12-07T07:37:03;95412.22;;;10.27;100.00
9521;BME280;4798;41.574;23.734;2022-12-07T07:39:31;95402.88;;;9.84;100.00
9521;BME280;4798;41.574;23.734;2022-12-07T07:42:02;95417.97;;;9.88;100.00
9521;BME280;4798;41.574;23.734;2022-12-07T07:44:33;95419.31;;;10.06;100.00
9521;BME280;4798;41.574;23.734;2022-12-07T07:47:02;95417.94;;;9.78;100.00
9521;BME280;4798;41.574;23.734;2022-12-07T07:49:30;95417.19;;;9.98;100.00
9521;BME280;4798;41.574;23.734;2022-12-07T07:51:58;95412.66;;;9.88;100.00
9521;BME280;4798;41.574;23.734;2022-12-07T07:54:27;95418.50;;;10.05;100.00
9521;BME280;4798;41.574;23.734;2022-12-07T07:56:55;95416.41;;;10.07;100.00
9521;BME280;4798;41.574;23.734;2022-12-07T07:59:23;95411.84;;;9.73;100.00
9521;BME280;4798;41.574;23.734;2022-12-07T08:01:54;95423.53;;;9.97;100.00
9521;BME280;4798;41.574;23.734;2022-12-07T08:04:22;95422.88;;;9.49;100.00
9521;BME280;4798;41.574;23.734;2022-12-07T08:06:50;95423.97;;;9.53;100.00
9521;BME280;4798;41.574;23.734;2022-12-07T08:09:19;95423.22;;;9.73;100.00
9521;BME280;4798;41.574;23.734;2022-12-07T08:11:47;95414.78;;;9.81;100.00
9521;BME280;4798;41.574;23.734;2022-12-07T08:14:15;95417.94;;;9.78;100.00
9521;BME280;4798;41.574;23.734;2022-12-07T08:16:44;95417.16;;;9.93;100.00
9521;BME280;4798;41.574;23.734;2022-12-07T08:19:13;95419.03;;;9.92;100.00
9521;BME280;4798;41.574;23.734;2022-12-07T08:21:42;95432.84;;;10.19;100.00
9521;BME280;4798;41.574;23.734;2022-12-07T08:24:10;95423.06;;;10.35;100.00
9521;BME280;4798;41.574;23.734;2022-12-07T08:26:38;95415.91;;;10.31;100.00
9521;BME280;4798;41.574;23.734;2022-12-07T08:29:06;95417.53;;;10.37;100.00
9521;BME280;4798;41.574;23.734;2022-12-07T08:31:35;95354.97;;;10.05;100.00
9521;BME280;4798;41.574;23.734;2022-12-07T08:34:03;95409.53;;;10.06;100.00
9521;BME280;4798;41.574;23.734;2022-12-07T08:36:33;95411.13;;;10.53;100.00
9521;BME280;4798;41.574;23.734;2022-12-07T08:39:01;95354.47;;;10.24;99.29
9521;BME280;4798;41.574;23.734;2022-12-07T08:41:50;95404.25;;;10.62;99.43
9521;BME280;4798;41.574;23.734;2022-12-07T08:44:18;95406.38;;;10.19;100.00
9521;BME280;4798;41.574;23.734;2022-12-07T08:46:49;95405.84;;;10.43;100.00
9521;BME280;4798;41.574;23.734;2022-12-07T08:49:23;95402.41;;;10.62;99.30
9521;BME280;4798;41.574;23.734;2022-12-07T08:51:55;95405.78;;;10.88;98.06
9521;BME280;4798;41.574;23.734;2022-12-07T08:54:23;95399.97;;;10.86;97.25
9521;BME280;4798;41.574;23.734;2022-12-07T08:56:54;95402.56;;;11.11;96.51
9521;BME280;4798;41.574;23.734;2022-12-07T08:59:26;95355.47;;;10.58;93.59
9521;BME280;4798;41.574;23.734;2022-12-07T09:01:55;95398.59;;;11.04;92.54
9521;BME280;4798;41.574;23.734;2022-12-07T09:04:24;95387.75;;;11.05;94.71
9521;BME280;4798;41.574;23.734;2022-12-07T09:06:55;95392.25;;;11.00;93.91
9521;BME280;4798;41.574;23.734;2022-12-07T09:09:23;95389.72;;;11.33;91.31
9521;BME280;4798;41.574;23.734;2022-12-07T09:11:52;95387.53;;;11.56;90.13
9521;BME280;4798;41.574;23.734;2022-12-07T09:14:20;95379.66;;;11.40;90.54
9521;BME280;4798;41.574;23.734;2022-12-07T09:16:48;95381.28;;;11.21;91.09
9521;BME280;4798;41.574;23.734;2022-12-07T09:19:17;95381.28;;;11.21;94.32
9521;BME280;4798;41.574;23.734;2022-12-07T09:21:45;95372.84;;;11.14;93.47
9521;BME280;4798;41.574;23.734;2022-12-07T09:24:15;95370.25;;;10.99;96.03
9521;BME280;4798;41.574;23.734;2022-12-07T09:26:43;95367.50;;;11.19;96.03
9521;BME280;4798;41.574;23.734;2022-12-07T09:29:11;95361.88;;;11.31;94.60
9521;BME280;4798;41.574;23.734;2022-12-07T09:31:40;95292.44;;;10.50;98.40
9521;BME280;4798;41.574;23.734;2022-12-07T09:34:08;95355.09;;;11.05;97.28
9521;BME280;4798;41.574;23.734;2022-12-07T09:36:37;95360.47;;;10.84;98.74
9521;BME280;4798;41.574;23.734;2022-12-07T09:39:05;95355.47;;;10.68;100.00
9521;BME280;4798;41.574;23.734;2022-12-07T09:41:37;95350.75;;;10.55;100.00
9521;BME280;4798;41.574;23.734;2022-12-07T09:44:10;95360.25;;;10.51;100.00
9521;BME280;4798;41.574;23.734;2022-12-07T09:46:40;95346.00;;;10.32;100.00
9521;BME280;4798;41.574;23.734;2022-12-07T09:49:12;95235.84;;;9.75;100.00
9521;BME280;4798;41.574;23.734;2022-12-07T09:51:42;95337.19;;;10.66;100.00
9521;BME280;4798;41.574;23.734;2022-12-07T09:54:13;95306.41;;;10.75;100.00
9521;BME280;4798;41.574;23.734;2022-12-07T09:56:43;95331.03;;;10.86;100.00
9521;BME280;4798;41.574;23.734;2022-12-07T09:59:16;95329.66;;;10.99;100.00
9521;BME280;4798;41.574;23.734;2022-12-07T10:01:47;95326.31;;;10.68;100.00
9521;BME280;4798;41.574;23.734;2022-12-07T10:04:17;95326.91;;;10.35;100.00
9521;BME280;4798;41.574;23.734;2022-12-07T10:06:48;95319.13;;;10.73;100.00
9521;BME280;4798;41.574;23.734;2022-12-07T10:09:19;95326.59;;;10.61;100.00
9521;BME280;4798;41.574;23.734;2022-12-07T10:12:06;95328.47;;;10.56;100.00
9521;BME280;4798;41.574;23.734;2022-12-07T10:14:37;95318.31;;;10.83;100.00
9521;BME280;4798;41.574;23.734;2022-12-07T10:17:33;95313.56;;;10.85;100.00
9521;BME280;4798;41.574;23.734;2022-12-07T10:20:15;95306.03;;;11.07;100.00
9521;BME280;4798;41.574;23.734;2022-12-07T10:23:01;95298.59;;;11.09;100.00
9521;BME280;4798;41.574;23.734;2022-12-07T10:25:31;95273.84;;;11.24;99.50
9521;BME280;4798;41.574;23.734;2022-12-07T10:28:10;95294.28;;;11.67;95.42
9521;BME280;4798;41.574;23.734;2022-12-07T10:30:48;95208.03;;;11.26;92.59
9521;BME280;4798;41.574;23.734;2022-12-07T10:33:29;95283.94;;;11.71;92.50
9521;BME280;4798;41.574;23.734;2022-12-07T10:35:58;95282.66;;;11.58;94.06
9521;BME280;4798;41.574;23.734;2022-12-07T10:38:28;95282.78;;;11.43;94.79
9521;BME280;4798;41.574;23.734;2022-12-07T10:41:05;95278.97;;;11.54;93.07
9521;BME280;4798;41.574;23.734;2022-12-07T10:43:46;95272.66;;;11.45;94.25
9521;BME280;4798;41.574;23.734;2022-12-07T10:52:48;95277.53;;;10.69;100.00
9521;BME280;4798;41.574;23.734;2022-12-07T10:55:25;95272.00;;;11.19;98.82
9521;BME280;4798;41.574;23.734;2022-12-07T10:58:12;95266.06;;;11.37;97.13
9521;BME280;4798;41.574;23.734;2022-12-07T11:00:52;95261.19;;;11.55;94.54
9521;BME280;4798;41.574;23.734;2022-12-07T11:03:48;95262.06;;;11.84;93.98
9521;BME280;4798;41.574;23.734;2022-12-07T11:06:29;95252.25;;;11.79;91.44
9521;BME280;4798;41.574;23.734;2022-12-07T11:09:17;95252.44;;;12.22;90.30
9521;BME280;4798;41.574;23.734;2022-12-07T11:12:15;95247.47;;;12.39;89.75
9521;BME280;4798;41.574;23.734;2022-12-07T11:14:52;95245.03;;;12.19;88.34
9521;BME280;4798;41.574;23.734;2022-12-07T11:17:32;95233.34;;;12.43;90.97
9521;BME280;4798;41.574;23.734;2022-12-07T11:20:15;95233.22;;;12.53;87.94
9521;BME280;4798;41.574;23.734;2022-12-07T11:22:51;95225.88;;;13.11;86.86
9521;BME280;4798;41.574;23.734;2022-12-07T11:25:31;95216.53;;;13.14;82.84
9521;BME280;4798;41.574;23.734;2022-12-07T11:28:13;95217.53;;;13.55;80.67
9521;BME280;4798;41.574;23.734;2022-12-07T11:30:52;95205.34;;;13.35;81.93
9521;BME280;4798;41.574;23.734;2022-12-07T11:33:29;95216.91;;;13.45;82.21
9521;BME280;4798;41.574;23.734;2022-12-07T11:36:06;95207.97;;;13.54;80.24
9521;BME280;4798;41.574;23.734;2022-12-07T11:38:43;95210.44;;;13.51;81.15
9521;BME280;4798;41.574;23.734;2022-12-07T11:41:21;95205.78;;;13.75;78.56
9521;BME280;4798;41.574;23.734;2022-12-07T11:43:54;95207.88;;;13.91;77.97
9521;BME280;4798;41.574;23.734;2022-12-07T11:46:26;95202.66;;;13.35;77.84
9521;BME280;4798;41.574;23.734;2022-12-07T11:49:08;95194.94;;;13.53;77.79
9521;BME280;4798;41.574;23.734;2022-12-07T11:51:40;95198.06;;;13.22;77.63
9521;BME280;4798;41.574;23.734;2022-12-07T11:54:15;95195.16;;;13.00;81.04
9521;BME280;4798;41.574;23.734;2022-12-07T11:56:45;95183.41;;;13.01;82.75
9521;BME280;4798;41.574;23.734;2022-12-07T11:59:19;95170.34;;;12.62;82.68
9521;BME280;4798;41.574;23.734;2022-12-07T12:01:54;95185.59;;;12.57;80.48
9521;BME280;4798;41.574;23.734;2022-12-07T12:04:32;95172.72;;;12.22;83.82
9521;BME280;4798;41.574;23.734;2022-12-07T12:07:03;95174.53;;;12.26;83.42
9521;BME280;4798;41.574;23.734;2022-12-07T12:09:57;95168.88;;;12.09;83.40
9521;BME280;4798;41.574;23.734;2022-12-07T12:12:52;95119.53;;;11.74;85.42
9521;BME280;4798;41.574;23.734;2022-12-07T12:16:07;95157.50;;;12.27;85.94
9521;BME280;4798;41.574;23.734;2022-12-07T12:18:48;95153.84;;;12.23;85.00
9521;BME280;4798;41.574;23.734;2022-12-07T12:21:22;95153.47;;;12.30;84.95
9521;BME280;4798;41.574;23.734;2022-12-07T12:23:56;95151.81;;;12.57;84.08
9521;BME280;4798;41.574;23.734;2022-12-07T12:26:29;95136.75;;;12.71;83.56
9521;BME280;4798;41.574;23.734;2022-12-07T12:29:00;95142.09;;;12.90;82.03
9521;BME280;4798;41.574;23.734;2022-12-07T12:31:35;95137.53;;;12.91;82.53
9521;BME280;4798;41.574;23.734;2022-12-07T12:34:31;95143.50;;;12.83;81.00
9521;BME280;4798;41.574;23.734;2022-12-07T12:37:01;95136.78;;;12.90;80.77
9521;BME280;4798;41.574;23.734;2022-12-07T12:39:29;95139.91;;;12.73;80.54
9521;BME280;4798;41.574;23.734;2022-12-07T12:41:59;95141.09;;;13.05;81.43
9521;BME280;4798;41.574;23.734;2022-12-07T12:44:40;95139.38;;;13.14;79.95
9521;BME280;4798;41.574;23.734;2022-12-07T12:47:40;95139.88;;;13.16;80.33
9521;BME280;4798;41.574;23.734;2022-12-07T12:50:17;95141.16;;;13.00;80.63
9521;BME280;4798;41.574;23.734;2022-12-07T12:58:39;95135.97;;;12.90;81.14
9521;BME280;4798;41.574;23.734;2022-12-07T13:01:40;95143.47;;;13.06;80.63
9521;BME280;4798;41.574;23.734;2022-12-07T13:07:10;95142.44;;;13.02;82.21
9521;BME280;4798;41.574;23.734;2022-12-07T13:09:43;95140.81;;;13.06;80.63
9521;BME280;4798;41.574;23.734;2022-12-07T13:12:14;95139.78;;;13.02;80.73
9521;BME280;4798;41.574;23.734;2022-12-07T13:14:55;95153.28;;;13.06;81.74
9521;BME280;4798;41.574;23.734;2022-12-07T13:17:58;94952.31;;;11.93;80.39
9521;BME280;4798;41.574;23.734;2022-12-07T13:20:51;95143.47;;;13.25;78.53
9521;BME280;4798;41.574;23.734;2022-12-07T13:23:29;95129.81;;;13.13;78.57
9521;BME280;4798;41.574;23.734;2022-12-07T13:28:52;95131.75;;;13.07;81.55
9521;BME280;4798;41.574;23.734;2022-12-07T13:31:34;95133.31;;;12.71;83.24
9521;BME280;4798;41.574;23.734;2022-12-07T13:34:04;95132.78;;;12.88;81.97
9521;BME280;4798;41.574;23.734;2022-12-07T13:36:37;95129.66;;;12.67;82.97
9521;BME280;4798;41.574;23.734;2022-12-07T13:39:17;95127.63;;;12.77;81.73
9521;BME280;4798;41.574;23.734;2022-12-07T13:41:52;95127.03;;;12.81;81.38
9521;BME280;4798;41.574;23.734;2022-12-07T13:44:21;95117.34;;;12.71;81.67
9521;BME280;4798;41.574;23.734;2022-12-07T13:47:04;95121.06;;;12.70;82.00
9521;BME280;4798;41.574;23.734;2022-12-07T13:49:38;95131.81;;;12.84;82.78
9521;BME280;4798;41.574;23.734;2022-12-07T13:52:14;95116.69;;;12.60;83.10
9521;BME280;4798;41.574;23.734;2022-12-07T13:54:45;95130.19;;;12.83;82.96
9521;BME280;4798;41.574;23.734;2022-12-07T13:57:16;95099.31;;;12.87;82.09
9521;BME280;4798;41.574;23.734;2022-12-07T13:59:46;95124.97;;;12.96;84.20
9521;BME280;4798;41.574;23.734;2022-12-07T14:02:19;95132.81;;;13.25;82.82